sensor_id;sensor_type;location;lat;lon;timestamp;pressure;altitude;pressure_sealevel;temperature;humidity
37892;BME280;45797;47.466;9.486;2023-07-28T00:01:03;95276.94;;;20.30;56.12
37892;BME280;45797;47.466;9.486;2023-07-28T00:06:04;95278.84;;;20.21;56.06
37892;BME280;45797;47.466;9.486;2023-07-28T00:11:12;95281.03;;;20.18;56.51
37892;BME280;45797;47.466;9.486;2023-07-28T00:16:13;95279.19;;;20.04;56.89
37892;BME280;45797;47.466;9.486;2023-07-28T00:21:14;95280.94;;;19.96;56.89
37892;BME280;45797;47.466;9.486;2023-07-28T00:26:14;95260.41;;;19.90;57.03
37892;BME280;45797;47.466;9.486;2023-07-28T00:31:16;95255.44;;;19.87;57.25
37892;BME280;45797;47.466;9.486;2023-07-28T00:36:17;95247.63;;;19.86;57.34
37892;BME280;45797;47.466;9.486;2023-07-28T00:41:18;95234.97;;;19.88;56.98
37892;BME280;45797;47.466;9.486;2023-07-28T00:46:20;95231.88;;;19.84;57.18
37892;BME280;45797;47.466;9.486;2023-07-28T00:51:33;95240.56;;;19.78;57.47
37892;BME280;45797;47.466;9.486;2023-07-28T00:56:52;95233.97;;;19.74;56.85
37892;BME280;45797;47.466;9.486;2023-07-28T01:01:56;95236.25;;;19.77;57.27
37892;BME280;45797;47.466;9.486;2023-07-28T01:07:13;95222.84;;;19.71;57.39
37892;BME280;45797;47.466;9.486;2023-07-28T01:12:15;95215.53;;;19.73;57.05
37892;BME280;45797;47.466;9.486;2023-07-28T01:17:17;95206.19;;;19.77;57.78
37892;BME280;45797;47.466;9.486;2023-07-28T01:27:53;95199.22;;;19.76;57.55
37892;BME280;45797;47.466;9.486;2023-07-28T01:32:59;95193.28;;;19.74;57.64
37892;BME280;45797;47.466;9.486;2023-07-28T01:38:16;95199.78;;;19.71;57.45
37892;BME280;45797;47.466;9.486;2023-07-28T01:43:17;95200.25;;;19.75;57.93
37892;BME280;45797;47.466;9.486;2023-07-28T01:48:20;95192.72;;;19.78;57.80
37892;BME280;45797;47.466;9.486;2023-07-28T01:53:21;95191.88;;;19.78;58.44
37892;BME280;45797;47.466;9.486;2023-07-28T01:58:22;95195.56;;;19.77;58.65
37892;BME280;45797;47.466;9.486;2023-07-28T02:03:24;95198.78;;;19.72;58.84
37892;BME280;45797;47.466;9.486;2023-07-28T02:08:31;95191.06;;;19.77;58.19
37892;BME280;45797;47.466;9.486;2023-07-28T02:13:32;95198.31;;;19.83;58.02
37892;BME280;45797;47.466;9.486;2023-07-28T02:18:33;95198.59;;;19.88;58.06
37892;BME280;45797;47.466;9.486;2023-07-28T02:23:35;95193.56;;;19.93;58.05
37892;BME280;45797;47.466;9.486;2023-07-28T02:28:37;95191.34;;;19.97;58.20
37892;BME280;45797;47.466;9.486;2023-07-28T02:33:39;95201.25;;;20.03;57.81
37892;BME280;45797;47.466;9.486;2023-07-28T02:38:40;95208.03;;;20.06;58.26
37892;BME280;45797;47.466;9.486;2023-07-28T02:43:41;95212.16;;;20.08;57.97
37892;BME280;45797;47.466;9.486;2023-07-28T02:48:43;95215.28;;;20.12;58.17
37892;BME280;45797;47.466;9.486;2023-07-28T02:53:45;95232.91;;;20.13;58.21
37892;BME280;45797;47.466;9.486;2023-07-28T02:58:47;95235.81;;;20.18;58.16
37892;BME280;45797;47.466;9.486;2023-07-28T03:03:49;95251.78;;;20.18;58.19
37892;BME280;45797;47.466;9.486;2023-07-28T03:08:52;95250.94;;;20.17;58.48
37892;BME280;45797;47.466;9.486;2023-07-28T03:14:13;95251.31;;;20.14;58.46
37892;BME280;45797;47.466;9.486;2023-07-28T03:19:13;95261.97;;;20.14;58.18
37892;BME280;45797;47.466;9.486;2023-07-28T03:24:13;95279.75;;;20.14;58.75
37892;BME280;45797;47.466;9.486;2023-07-28T03:29:15;95307.38;;;20.13;58.60
37892;BME280;45797;47.466;9.486;2023-07-28T03:34:19;95321.94;;;20.17;58.58
37892;BME280;45797;47.466;9.486;2023-07-28T03:41:43;95323.44;;;20.19;58.67
37892;BME280;45797;47.466;9.486;2023-07-28T03:46:59;95319.28;;;20.17;58.73
37892;BME280;45797;47.466;9.486;2023-07-28T03:52:02;95325.09;;;20.20;59.13
37892;BME280;45797;47.466;9.486;2023-07-28T03:57:12;95320.78;;;20.19;59.21
37892;BME280;45797;47.466;9.486;2023-07-28T04:02:15;95332.50;;;20.10;59.73
37892;BME280;45797;47.466;9.486;2023-07-28T04:07:20;95326.13;;;19.96;59.95
37892;BME280;45797;47.466;9.486;2023-07-28T04:12:26;95333.16;;;19.89;60.25
37892;BME280;45797;47.466;9.486;2023-07-28T04:17:27;95346.41;;;19.97;59.90
37892;BME280;45797;47.466;9.486;2023-07-28T04:22:37;95353.59;;;20.12;59.95
37892;BME280;45797;47.466;9.486;2023-07-28T04:27:48;95366.59;;;20.07;59.84
37892;BME280;45797;47.466;9.486;2023-07-28T04:32:51;95360.00;;;20.03;60.60
37892;BME280;45797;47.466;9.486;2023-07-28T04:37:54;95370.63;;;20.03;60.44
37892;BME280;45797;47.466;9.486;2023-07-28T04:43:17;95349.78;;;20.29;59.51
37892;BME280;45797;47.466;9.486;2023-07-28T04:48:23;95354.16;;;20.60;58.66
37892;BME280;45797;47.466;9.486;2023-07-28T04:53:23;95356.78;;;20.89;58.13
37892;BME280;45797;47.466;9.486;2023-07-28T04:58:55;95365.75;;;21.18;57.12
37892;BME280;45797;47.466;9.486;2023-07-28T05:03:55;95373.00;;;21.38;56.77
37892;BME280;45797;47.466;9.486;2023-07-28T05:09:01;95375.69;;;21.60;56.71
37892;BME280;45797;47.466;9.486;2023-07-28T05:14:08;95378.31;;;21.75;56.95
37892;BME280;45797;47.466;9.486;2023-07-28T05:19:09;95381.22;;;21.58;57.60
37892;BME280;45797;47.466;9.486;2023-07-28T05:24:36;95379.03;;;21.47;57.94
37892;BME280;45797;47.466;9.486;2023-07-28T05:29:37;95382.44;;;21.41;58.46
37892;BME280;45797;47.466;9.486;2023-07-28T05:34:52;95383.75;;;21.45;58.43
37892;BME280;45797;47.466;9.486;2023-07-28T05:39:52;95377.28;;;21.54;58.79
37892;BME280;45797;47.466;9.486;2023-07-28T05:44:56;95372.47;;;21.64;58.56
37892;BME280;45797;47.466;9.486;2023-07-28T05:50:09;95380.34;;;21.73;58.53
37892;BME280;45797;47.466;9.486;2023-07-28T05:55:23;95391.22;;;21.71;58.70
37892;BME280;45797;47.466;9.486;2023-07-28T06:00:34;95385.72;;;21.79;58.66
37892;BME280;45797;47.466;9.486;2023-07-28T06:05:40;95399.22;;;21.92;58.63
37892;BME280;45797;47.466;9.486;2023-07-28T06:10:43;95402.59;;;22.01;58.81
37892;BME280;45797;47.466;9.486;2023-07-28T06:15:44;95399.53;;;22.04;58.51
37892;BME280;45797;47.466;9.486;2023-07-28T06:20:52;95395.75;;;22.13;58.48
37892;BME280;45797;47.466;9.486;2023-07-28T06:25:53;95391.97;;;22.29;57.79
37892;BME280;45797;47.466;9.486;2023-07-28T06:30:56;95389.69;;;22.54;57.16
37892;BME280;45797;47.466;9.486;2023-07-28T06:36:07;95390.91;;;22.79;56.09
37892;BME280;45797;47.466;9.486;2023-07-28T06:41:12;95407.53;;;23.03;55.83
37892;BME280;45797;47.466;9.486;2023-07-28T06:46:12;95414.00;;;23.28;55.30
37892;BME280;45797;47.466;9.486;2023-07-28T06:51:13;95417.22;;;23.58;54.44
37892;BME280;45797;47.466;9.486;2023-07-28T06:56:16;95411.56;;;23.81;54.13
37892;BME280;45797;47.466;9.486;2023-07-28T07:01:27;95406.25;;;24.01;53.26
37892;BME280;45797;47.466;9.486;2023-07-28T07:06:31;95406.03;;;24.16;53.11
37892;BME280;45797;47.466;9.486;2023-07-28T07:11:40;95407.72;;;24.30;52.91
37892;BME280;45797;47.466;9.486;2023-07-28T07:16:41;95410.44;;;24.50;52.24
37892;BME280;45797;47.466;9.486;2023-07-28T07:21:47;95419.72;;;24.74;51.81
37892;BME280;45797;47.466;9.486;2023-07-28T07:26:50;95418.03;;;24.86;51.56
37892;BME280;45797;47.466;9.486;2023-07-28T07:31:52;95423.38;;;25.13;51.23
37892;BME280;45797;47.466;9.486;2023-07-28T07:36:58;95420.44;;;25.27;51.03
37892;BME280;45797;47.466;9.486;2023-07-28T07:42:00;95411.13;;;25.30;50.71
37892;BME280;45797;47.466;9.486;2023-07-28T07:47:11;95422.06;;;25.35;50.69
37892;BME280;45797;47.466;9.486;2023-07-28T07:52:13;95428.25;;;25.42;50.53
37892;BME280;45797;47.466;9.486;2023-07-28T07:57:13;95437.25;;;25.61;50.47
37892;BME280;45797;47.466;9.486;2023-07-28T08:02:15;95441.03;;;25.98;49.43
37892;BME280;45797;47.466;9.486;2023-07-28T08:07:16;95450.16;;;26.22;49.14
37892;BME280;45797;47.466;9.486;2023-07-28T08:12:24;95444.75;;;26.29;49.24
37892;BME280;45797;47.466;9.486;2023-07-28T08:17:32;95446.28;;;26.50;48.66
37892;BME280;45797;47.466;9.486;2023-07-28T08:22:35;95443.06;;;26.66;48.19
37892;BME280;45797;47.466;9.486;2023-07-28T08:27:37;95452.00;;;26.85;47.92
37892;BME280;45797;47.466;9.486;2023-07-28T08:32:39;95457.72;;;26.95;47.67
37892;BME280;45797;47.466;9.486;2023-07-28T08:37:44;95455.59;;;27.03;47.64
37892;BME280;45797;47.466;9.486;2023-07-28T08:42:46;95449.47;;;26.90;47.67
37892;BME280;45797;47.466;9.486;2023-07-28T08:47:47;95450.97;;;26.86;48.28
37892;BME280;45797;47.466;9.486;2023-07-28T08:52:50;95447.22;;;26.87;48.42
37892;BME280;45797;47.466;9.486;2023-07-28T08:57:52;95444.81;;;26.79;48.44
37892;BME280;45797;47.466;9.486;2023-07-28T09:02:53;95443.28;;;26.64;48.55
37892;BME280;45797;47.466;9.486;2023-07-28T09:07:54;95447.03;;;26.63;48.27
37892;BME280;45797;47.466;9.486;2023-07-28T09:13:02;95446.34;;;26.93;47.81
37892;BME280;45797;47.466;9.486;2023-07-28T09:18:07;95439.56;;;27.33;46.96
37892;BME280;45797;47.466;9.486;2023-07-28T09:23:10;95436.69;;;27.47;46.86
37892;BME280;45797;47.466;9.486;2023-07-28T09:28:15;95447.34;;;27.42;47.30
37892;BME280;45797;47.466;9.486;2023-07-28T09:33:35;95451.06;;;27.41;47.29
37892;BME280;45797;47.466;9.486;2023-07-28T09:38:40;95461.84;;;27.59;46.99
37892;BME280;45797;47.466;9.486;2023-07-28T09:43:41;95453.03;;;27.70;46.72
37892;BME280;45797;47.466;9.486;2023-07-28T09:48:45;95459.47;;;27.69;46.77
37892;BME280;45797;47.466;9.486;2023-07-28T09:54:12;95447.56;;;27.58;46.89
37892;BME280;45797;47.466;9.486;2023-07-28T09:59:17;95456.59;;;27.64;46.82
37892;BME280;45797;47.466;9.486;2023-07-28T10:04:33;95454.81;;;27.76;46.83
37892;BME280;45797;47.466;9.486;2023-07-28T10:09:36;95451.16;;;27.89;46.35
37892;BME280;45797;47.466;9.486;2023-07-28T10:14:39;95443.38;;;28.11;45.41
37892;BME280;45797;47.466;9.486;2023-07-28T10:19:42;95433.34;;;28.48;45.07
37892;BME280;45797;47.466;9.486;2023-07-28T10:25:01;95443.25;;;28.89;44.45
37892;BME280;45797;47.466;9.486;2023-07-28T10:30:03;95438.69;;;29.13;43.89
37892;BME280;45797;47.466;9.486;2023-07-28T10:40:33;95452.25;;;29.77;43.32
37892;BME280;45797;47.466;9.486;2023-07-28T10:45:36;95438.16;;;29.75;43.38
37892;BME280;45797;47.466;9.486;2023-07-28T10:50:51;95435.31;;;29.81;43.69
37892;BME280;45797;47.466;9.486;2023-07-28T10:55:54;95442.41;;;30.11;42.73
37892;BME280;45797;47.466;9.486;2023-07-28T11:01:01;95445.22;;;30.16;42.60
37892;BME280;45797;47.466;9.486;2023-07-28T11:06:03;95443.72;;;29.68;43.50
37892;BME280;45797;47.466;9.486;2023-07-28T11:11:06;95439.75;;;29.47;43.63
37892;BME280;45797;47.466;9.486;2023-07-28T11:16:07;95432.69;;;29.58;43.71
37892;BME280;45797;47.466;9.486;2023-07-28T11:21:10;95421.84;;;29.70;43.38
37892;BME280;45797;47.466;9.486;2023-07-28T11:26:11;95427.16;;;29.93;43.47
37892;BME280;45797;47.466;9.486;2023-07-28T11:31:12;95413.97;;;30.37;42.47
37892;BME280;45797;47.466;9.486;2023-07-28T11:36:24;95409.75;;;30.75;41.84
37892;BME280;45797;47.466;9.486;2023-07-28T11:41:41;95404.97;;;30.98;41.58
37892;BME280;45797;47.466;9.486;2023-07-28T11:46:42;95415.63;;;31.05;41.60
37892;BME280;45797;47.466;9.486;2023-07-28T11:51:51;95411.47;;;30.81;41.47
37892;BME280;45797;47.466;9.486;2023-07-28T11:56:56;95411.69;;;30.62;41.90
37892;BME280;45797;47.466;9.486;2023-07-28T12:02:03;95410.88;;;30.45;41.86
37892;BME280;45797;47.466;9.486;2023-07-28T12:07:32;95408.22;;;30.33;42.21
37892;BME280;45797;47.466;9.486;2023-07-28T12:12:54;95410.16;;;30.21;43.11
37892;BME280;45797;47.466;9.486;2023-07-28T12:18:07;95413.50;;;30.11;42.97
37892;BME280;45797;47.466;9.486;2023-07-28T12:23:09;95404.94;;;30.14;42.27
37892;BME280;45797;47.466;9.486;2023-07-28T12:28:11;95398.28;;;30.22;42.55
37892;BME280;45797;47.466;9.486;2023-07-28T12:33:12;95399.94;;;30.40;42.36
37892;BME280;45797;47.466;9.486;2023-07-28T12:38:14;95394.19;;;30.65;41.36
37892;BME280;45797;47.466;9.486;2023-07-28T12:43:15;95405.38;;;31.07;41.20
37892;BME280;45797;47.466;9.486;2023-07-28T12:48:21;95389.59;;;31.60;40.66
37892;BME280;45797;47.466;9.486;2023-07-28T12:53:21;95397.84;;;31.92;40.14
37892;BME280;45797;47.466;9.486;2023-07-28T12:58:22;95374.34;;;32.24;39.65
37892;BME280;45797;47.466;9.486;2023-07-28T13:03:24;95371.78;;;32.39;39.30
37892;BME280;45797;47.466;9.486;2023-07-28T13:08:44;95372.84;;;32.38;39.25
37892;BME280;45797;47.466;9.486;2023-07-28T13:13:45;95381.06;;;32.22;39.95
37892;BME280;45797;47.466;9.486;2023-07-28T13:18:46;95381.22;;;32.32;39.44
37892;BME280;45797;47.466;9.486;2023-07-28T13:23:49;95378.09;;;32.82;38.58
37892;BME280;45797;47.466;9.486;2023-07-28T13:28:51;95378.91;;;33.20;38.34
37892;BME280;45797;47.466;9.486;2023-07-28T13:33:54;95365.00;;;33.64;38.29
37892;BME280;45797;47.466;9.486;2023-07-28T13:39:07;95373.94;;;33.49;38.17
37892;BME280;45797;47.466;9.486;2023-07-28T13:44:18;95366.47;;;33.34;38.25
37892;BME280;45797;47.466;9.486;2023-07-28T13:49:19;95365.88;;;33.17;38.47
37892;BME280;45797;47.466;9.486;2023-07-28T13:54:21;95368.88;;;33.20;37.96
37892;BME280;45797;47.466;9.486;2023-07-28T13:59:21;95362.25;;;33.01;38.22
37892;BME280;45797;47.466;9.486;2023-07-28T14:04:27;95358.16;;;32.66;38.90
37892;BME280;45797;47.466;9.486;2023-07-28T14:09:27;95352.34;;;31.94;40.18
37892;BME280;45797;47.466;9.486;2023-07-28T14:14:28;95358.09;;;31.53;40.92
37892;BME280;45797;47.466;9.486;2023-07-28T14:19:36;95355.63;;;31.52;40.95
37892;BME280;45797;47.466;9.486;2023-07-28T14:24:36;95356.69;;;31.95;40.22
37892;BME280;45797;47.466;9.486;2023-07-28T14:29:36;95363.59;;;32.34;39.49
37892;BME280;45797;47.466;9.486;2023-07-28T14:34:37;95362.56;;;32.40;39.51
37892;BME280;45797;47.466;9.486;2023-07-28T14:39:39;95368.81;;;32.14;39.72
37892;BME280;45797;47.466;9.486;2023-07-28T14:44:43;95371.34;;;32.53;39.64
37892;BME280;45797;47.466;9.486;2023-07-28T14:49:43;95379.72;;;32.46;39.97
37892;BME280;45797;47.466;9.486;2023-07-28T14:54:44;95378.88;;;32.46;39.54
37892;BME280;45797;47.466;9.486;2023-07-28T14:59:46;95384.97;;;32.31;39.88
37892;BME280;45797;47.466;9.486;2023-07-28T15:04:48;95390.59;;;31.97;40.73
37892;BME280;45797;47.466;9.486;2023-07-28T15:09:48;95394.88;;;31.49;41.13
37892;BME280;45797;47.466;9.486;2023-07-28T15:14:48;95398.59;;;30.88;42.05
37892;BME280;45797;47.466;9.486;2023-07-28T15:19:49;95394.25;;;30.53;42.57
37892;BME280;45797;47.466;9.486;2023-07-28T15:24:56;95413.28;;;30.30;42.82
37892;BME280;45797;47.466;9.486;2023-07-28T15:29:57;95414.81;;;30.09;43.55
37892;BME280;45797;47.466;9.486;2023-07-28T15:34:57;95426.06;;;29.77;43.71
37892;BME280;45797;47.466;9.486;2023-07-28T15:40:08;95439.28;;;29.39;44.52
37892;BME280;45797;47.466;9.486;2023-07-28T15:45:10;95443.88;;;29.03;44.84
37892;BME280;45797;47.466;9.486;2023-07-28T15:50:11;95452.44;;;28.47;45.75
37892;BME280;45797;47.466;9.486;2023-07-28T15:55:14;95488.56;;;27.97;46.90
37892;BME280;45797;47.466;9.486;2023-07-28T16:00:35;95539.81;;;26.34;50.35
37892;BME280;45797;47.466;9.486;2023-07-28T16:05:35;95520.25;;;24.50;54.64
37892;BME280;45797;47.466;9.486;2023-07-28T16:10:46;95398.53;;;23.65;56.66
37892;BME280;45797;47.466;9.486;2023-07-28T16:15:49;95419.91;;;26.33;51.38
37892;BME280;45797;47.466;9.486;2023-07-28T16:20:50;95445.56;;;28.02;48.67
37892;BME280;45797;47.466;9.486;2023-07-28T16:25:52;95443.44;;;27.74;49.57
37892;BME280;45797;47.466;9.486;2023-07-28T16:30:52;95468.81;;;27.05;50.98
37892;BME280;45797;47.466;9.486;2023-07-28T16:35:52;95458.81;;;26.24;52.44
37892;BME280;45797;47.466;9.486;2023-07-28T16:40:54;95486.75;;;25.65;53.24
37892;BME280;45797;47.466;9.486;2023-07-28T16:45:54;95487.69;;;25.19;53.80
37892;BME280;45797;47.466;9.486;2023-07-28T16:50:54;95482.34;;;24.86;53.98
37892;BME280;45797;47.466;9.486;2023-07-28T16:55:54;95440.94;;;24.56;53.86
37892;BME280;45797;47.466;9.486;2023-07-28T17:00:57;95409.22;;;24.46;53.83
37892;BME280;45797;47.466;9.486;2023-07-28T17:05:59;95403.84;;;24.39;53.55
37892;BME280;45797;47.466;9.486;2023-07-28T17:11:01;95438.63;;;24.26;53.93
37892;BME280;45797;47.466;9.486;2023-07-28T17:16:03;95460.44;;;24.30;53.53
37892;BME280;45797;47.466;9.486;2023-07-28T17:21:06;95462.75;;;24.53;53.00
37892;BME280;45797;47.466;9.486;2023-07-28T17:26:08;95492.25;;;24.92;52.09
37892;BME280;45797;47.466;9.486;2023-07-28T17:31:25;95516.78;;;24.76;52.46
37892;BME280;45797;47.466;9.486;2023-07-28T17:36:25;95532.03;;;24.56;52.75
37892;BME280;45797;47.466;9.486;2023-07-28T17:41:39;95532.22;;;24.61;52.62
37892;BME280;45797;47.466;9.486;2023-07-28T17:46:45;95528.94;;;24.59;52.77
37892;BME280;45797;47.466;9.486;2023-07-28T17:51:47;95527.28;;;24.58;52.26
37892;BME280;45797;47.466;9.486;2023-07-28T17:56:54;95532.84;;;24.63;52.58
37892;BME280;45797;47.466;9.486;2023-07-28T18:01:54;95528.94;;;24.65;52.44
37892;BME280;45797;47.466;9.486;2023-07-28T18:06:56;95519.66;;;24.68;52.03
37892;BME280;45797;47.466;9.486;2023-07-28T18:11:56;95529.53;;;24.54;52.93
37892;BME280;45797;47.466;9.486;2023-07-28T18:16:56;95523.53;;;24.39;52.80
37892;BME280;45797;47.466;9.486;2023-07-28T18:21:57;95529.66;;;24.26;52.92
37892;BME280;45797;47.466;9.486;2023-07-28T18:26:58;95549.78;;;24.15;53.06
37892;BME280;45797;47.466;9.486;2023-07-28T18:32:05;95550.81;;;24.08;53.03
37892;BME280;45797;47.466;9.486;2023-07-28T18:37:07;95542.34;;;23.98;53.24
37892;BME280;45797;47.466;9.486;2023-07-28T18:42:07;95533.84;;;23.87;53.45
37892;BME280;45797;47.466;9.486;2023-07-28T18:47:15;95533.00;;;23.80;53.12
37892;BME280;45797;47.466;9.486;2023-07-28T18:52:16;95542.84;;;23.73;53.55
37892;BME280;45797;47.466;9.486;2023-07-28T18:57:18;95557.66;;;23.69;53.30
37892;BME280;45797;47.466;9.486;2023-07-28T19:02:19;95547.53;;;23.64;53.79
37892;BME280;45797;47.466;9.486;2023-07-28T19:07:21;95564.81;;;23.62;53.50
37892;BME280;45797;47.466;9.486;2023-07-28T19:12:21;95565.53;;;23.56;53.78
37892;BME280;45797;47.466;9.486;2023-07-28T19:17:33;95574.19;;;23.58;53.75
37892;BME280;45797;47.466;9.486;2023-07-28T19:22:40;95560.19;;;23.56;53.99
37892;BME280;45797;47.466;9.486;2023-07-28T19:27:41;95562.19;;;23.47;54.76
37892;BME280;45797;47.466;9.486;2023-07-28T19:32:49;95583.72;;;23.32;54.97
37892;BME280;45797;47.466;9.486;2023-07-28T19:37:56;95581.72;;;23.13;55.28
37892;BME280;45797;47.466;9.486;2023-07-28T19:42:58;95585.81;;;22.88;56.37
37892;BME280;45797;47.466;9.486;2023-07-28T19:47:58;95598.56;;;22.35;58.35
37892;BME280;45797;47.466;9.486;2023-07-28T19:53:01;95609.56;;;21.95;59.51
37892;BME280;45797;47.466;9.486;2023-07-28T19:58:11;95608.09;;;21.49;60.84
37892;BME280;45797;47.466;9.486;2023-07-28T20:03:13;95623.56;;;21.16;62.31
37892;BME280;45797;47.466;9.486;2023-07-28T20:08:14;95614.81;;;20.84;62.73
37892;BME280;45797;47.466;9.486;2023-07-28T20:13:21;95613.44;;;20.65;63.07
37892;BME280;45797;47.466;9.486;2023-07-28T20:18:21;95600.22;;;20.57;63.32
37892;BME280;45797;47.466;9.486;2023-07-28T20:23:24;95606.53;;;20.56;63.27
37892;BME280;45797;47.466;9.486;2023-07-28T20:28:32;95602.09;;;20.48;63.42
37892;BME280;45797;47.466;9.486;2023-07-28T20:33:32;95601.44;;;20.46;63.75
37892;BME280;45797;47.466;9.486;2023-07-28T20:38:44;95594.13;;;20.48;63.68
37892;BME280;45797;47.466;9.486;2023-07-28T20:43:54;95590.28;;;20.51;63.52
37892;BME280;45797;47.466;9.486;2023-07-28T20:48:54;95586.09;;;20.57;63.87
37892;BME280;45797;47.466;9.486;2023-07-28T20:54:02;95583.34;;;20.65;63.66
37892;BME280;45797;47.466;9.486;2023-07-28T20:59:02;95578.38;;;20.62;63.40
37892;BME280;45797;47.466;9.486;2023-07-28T21:04:02;95577.72;;;20.60;63.97
37892;BME280;45797;47.466;9.486;2023-07-28T21:09:06;95579.38;;;20.61;64.11
37892;BME280;45797;47.466;9.486;2023-07-28T21:14:07;95585.72;;;20.60;63.81
37892;BME280;45797;47.466;9.486;2023-07-28T21:19:18;95574.91;;;20.61;63.96
37892;BME280;45797;47.466;9.486;2023-07-28T21:24:20;95579.34;;;20.69;64.02
37892;BME280;45797;47.466;9.486;2023-07-28T21:29:21;95585.13;;;20.72;63.99
37892;BME280;45797;47.466;9.486;2023-07-28T21:34:31;95576.13;;;20.73;64.03
37892;BME280;45797;47.466;9.486;2023-07-28T21:39:32;95578.59;;;20.75;64.38
37892;BME280;45797;47.466;9.486;2023-07-28T21:44:32;95585.59;;;20.76;64.31
37892;BME280;45797;47.466;9.486;2023-07-28T21:49:42;95588.09;;;20.77;64.33
37892;BME280;45797;47.466;9.486;2023-07-28T21:54:42;95594.88;;;20.80;64.61
37892;BME280;45797;47.466;9.486;2023-07-28T21:59:44;95577.53;;;20.84;64.76
37892;BME280;45797;47.466;9.486;2023-07-28T22:04:52;95577.53;;;20.84;64.49
37892;BME280;45797;47.466;9.486;2023-07-28T22:10:04;95585.19;;;20.87;64.25
37892;BME280;45797;47.466;9.486;2023-07-28T22:15:07;95572.44;;;20.97;64.72
37892;BME280;45797;47.466;9.486;2023-07-28T22:20:10;95577.03;;;21.03;64.24
37892;BME280;45797;47.466;9.486;2023-07-28T22:25:11;95577.97;;;21.10;64.13
37892;BME280;45797;47.466;9.486;2023-07-28T22:30:37;95581.28;;;21.13;64.05
37892;BME280;45797;47.466;9.486;2023-07-28T22:35:38;95576.44;;;21.16;64.89
37892;BME280;45797;47.466;9.486;2023-07-28T22:40:38;95576.31;;;21.09;64.96
37892;BME280;45797;47.466;9.486;2023-07-28T22:45:45;95574.09;;;20.98;65.64
37892;BME280;45797;47.466;9.486;2023-07-28T22:50:45;95565.97;;;20.92;65.53
37892;BME280;45797;47.466;9.486;2023-07-28T22:55:46;95563.69;;;20.89;65.65
37892;BME280;45797;47.466;9.486;2023-07-28T23:00:46;95558.25;;;20.82;65.76
37892;BME280;45797;47.466;9.486;2023-07-28T23:05:47;95558.44;;;20.80;66.06
37892;BME280;45797;47.466;9.486;2023-07-28T23:10:50;95563.56;;;20.82;66.46
37892;BME280;45797;47.466;9.486;2023-07-28T23:15:51;95561.53;;;20.84;66.76
37892;BME280;45797;47.466;9.486;2023-07-28T23:20:53;95548.22;;;20.84;66.04
37892;BME280;45797;47.466;9.486;2023-07-28T23:25:59;95529.59;;;20.84;66.09
37892;BME280;45797;47.466;9.486;2023-07-28T23:31:15;95524.81;;;20.79;66.41
37892;BME280;45797;47.466;9.486;2023-07-28T23:36:15;95525.00;;;20.78;66.53
37892;BME280;45797;47.466;9.486;2023-07-28T23:41:37;95520.50;;;20.78;66.36
37892;BME280;45797;47.466;9.486;2023-07-28T23:46:37;95525.28;;;20.83;66.58
37892;BME280;45797;47.466;9.486;2023-07-28T23:51:37;95526.59;;;20.87;66.33
37892;BME280;45797;47.466;9.486;2023-07-28T23:56:38;95521.91;;;20.89;66.59
